KFEP/FEP METAR and TAF weather

Enter ICAO airport designator
Station Type Date Time Source
KFEP METAR 2022/08/13 11:35 UTC NOAA

KFEP 131135Z AUTO 18006KT 10SM OVC043 17/17 A3012 RMK AO2 T01720171


Station Type Date Time Source
KFEP Decoded METAR 2022/08/13 11:35 UTC NOAA

Freeport, Albertus Airport, IL, United States (KFEP) 42-14-47N 089-34-56W
Aug 13, 2022 - 07:35 AM EDT / 2022.08.13 1135 UTC
Wind: from the S (180 degrees) at 7 MPH (6 KT):0
Visibility: 10 mile(s):0
Sky conditions: overcast
Temperature: 63.0 F (17.2 C)
Dew Point: 62.8 F (17.1 C)
Relative Humidity: 99%
Pressure (altimeter): 30.12 in. Hg (1019 hPa)
ob: KFEP 131135Z AUTO 18006KT 10SM OVC043 17/17 A3012 RMK AO2 T01720171
cycle: 11

Station Type Date Time Source
KFEP TAF UTC NOAA

Error!

Example: see airport list